sensor_id;sensor_type;location;lat;lon;timestamp;P1;durP1;ratioP1;P2;durP2;ratioP2
78416;SDS011;67715;46.170;6.140;2024-01-10T00:22:43;32.25;;;13.98;;
78416;SDS011;67715;46.170;6.140;2024-01-10T00:25:14;27.00;;;12.18;;
78416;SDS011;67715;46.170;6.140;2024-01-10T00:27:48;31.08;;;13.32;;
78416;SDS011;67715;46.170;6.140;2024-01-10T00:30:21;27.20;;;12.93;;
78416;SDS011;67715;46.170;6.140;2024-01-10T00:32:53;33.55;;;13.00;;
78416;SDS011;67715;46.170;6.140;2024-01-10T00:35:19;30.27;;;13.23;;
78416;SDS011;67715;46.170;6.140;2024-01-10T00:37:50;34.55;;;14.23;;
78416;SDS011;67715;46.170;6.140;2024-01-10T00:40:15;33.75;;;14.52;;
78416;SDS011;67715;46.170;6.140;2024-01-10T00:42:40;36.87;;;14.63;;
78416;SDS011;67715;46.170;6.140;2024-01-10T00:45:06;39.17;;;15.18;;
78416;SDS011;67715;46.170;6.140;2024-01-10T00:47:34;39.53;;;15.95;;
78416;SDS011;67715;46.170;6.140;2024-01-10T00:49:59;27.42;;;12.95;;
78416;SDS011;67715;46.170;6.140;2024-01-10T00:52:25;34.93;;;13.57;;
78416;SDS011;67715;46.170;6.140;2024-01-10T00:57:28;31.10;;;11.90;;
78416;SDS011;67715;46.170;6.140;2024-01-10T01:26:03;34.15;;;14.07;;
78416;SDS011;67715;46.170;6.140;2024-01-10T03:42:20;31.95;;;12.68;;
78416;SDS011;67715;46.170;6.140;2024-01-10T03:44:57;29.73;;;13.73;;
78416;SDS011;67715;46.170;6.140;2024-01-10T03:48:05;34.28;;;14.70;;
78416;SDS011;67715;46.170;6.140;2024-01-10T03:51:18;31.73;;;12.85;;
78416;SDS011;67715;46.170;6.140;2024-01-10T10:15:14;40.83;;;16.95;;
78416;SDS011;67715;46.170;6.140;2024-01-10T10:17:51;40.67;;;16.33;;
78416;SDS011;67715;46.170;6.140;2024-01-10T10:22:57;37.42;;;16.75;;
78416;SDS011;67715;46.170;6.140;2024-01-10T10:25:45;48.60;;;20.42;;
78416;SDS011;67715;46.170;6.140;2024-01-10T10:28:12;50.30;;;19.83;;
78416;SDS011;67715;46.170;6.140;2024-01-10T10:30:38;44.25;;;19.05;;
78416;SDS011;67715;46.170;6.140;2024-01-10T10:33:03;51.30;;;19.08;;
78416;SDS011;67715;46.170;6.140;2024-01-10T10:35:32;54.35;;;21.23;;
78416;SDS011;67715;46.170;6.140;2024-01-10T10:37:57;49.92;;;20.70;;
78416;SDS011;67715;46.170;6.140;2024-01-10T10:40:23;54.50;;;20.50;;
78416;SDS011;67715;46.170;6.140;2024-01-10T10:42:52;49.30;;;20.75;;
78416;SDS011;67715;46.170;6.140;2024-01-10T10:45:24;52.10;;;18.60;;
78416;SDS011;67715;46.170;6.140;2024-01-10T10:48:00;55.55;;;21.58;;
78416;SDS011;67715;46.170;6.140;2024-01-10T10:50:38;62.38;;;21.70;;
78416;SDS011;67715;46.170;6.140;2024-01-10T10:53:20;58.83;;;23.25;;
78416;SDS011;67715;46.170;6.140;2024-01-10T10:59:16;46.15;;;19.88;;
78416;SDS011;67715;46.170;6.140;2024-01-10T11:02:31;53.03;;;19.83;;
78416;SDS011;67715;46.170;6.140;2024-01-10T11:09:16;53.20;;;20.95;;
78416;SDS011;67715;46.170;6.140;2024-01-10T11:15:21;57.35;;;18.63;;
78416;SDS011;67715;46.170;6.140;2024-01-10T11:18:21;50.13;;;20.40;;
78416;SDS011;67715;46.170;6.140;2024-01-10T11:21:11;55.60;;;22.38;;
78416;SDS011;67715;46.170;6.140;2024-01-10T11:23:51;51.80;;;19.48;;
78416;SDS011;67715;46.170;6.140;2024-01-10T11:26:18;49.92;;;20.15;;
78416;SDS011;67715;46.170;6.140;2024-01-10T11:28:44;51.88;;;21.08;;
78416;SDS011;67715;46.170;6.140;2024-01-10T11:31:10;55.88;;;21.33;;
78416;SDS011;67715;46.170;6.140;2024-01-10T11:33:44;50.45;;;19.83;;
78416;SDS011;67715;46.170;6.140;2024-01-10T11:36:14;50.47;;;20.27;;
78416;SDS011;67715;46.170;6.140;2024-01-10T11:38:47;55.88;;;21.58;;
78416;SDS011;67715;46.170;6.140;2024-01-10T11:41:46;49.78;;;20.52;;
78416;SDS011;67715;46.170;6.140;2024-01-10T11:46:38;52.67;;;20.88;;
78416;SDS011;67715;46.170;6.140;2024-01-10T11:49:06;51.47;;;20.52;;
78416;SDS011;67715;46.170;6.140;2024-01-10T11:51:35;54.92;;;19.52;;
78416;SDS011;67715;46.170;6.140;2024-01-10T11:54:01;48.10;;;19.73;;
78416;SDS011;67715;46.170;6.140;2024-01-10T11:56:32;56.30;;;20.90;;
78416;SDS011;67715;46.170;6.140;2024-01-10T11:59:03;53.30;;;22.10;;
78416;SDS011;67715;46.170;6.140;2024-01-10T12:01:35;53.22;;;19.92;;
78416;SDS011;67715;46.170;6.140;2024-01-10T12:04:02;55.38;;;22.25;;
78416;SDS011;67715;46.170;6.140;2024-01-10T12:06:29;55.15;;;22.48;;
78416;SDS011;67715;46.170;6.140;2024-01-10T12:08:54;62.45;;;22.40;;
78416;SDS011;67715;46.170;6.140;2024-01-10T12:11:20;43.25;;;17.58;;
78416;SDS011;67715;46.170;6.140;2024-01-10T12:13:45;53.25;;;21.00;;
78416;SDS011;67715;46.170;6.140;2024-01-10T12:16:14;57.47;;;21.63;;
78416;SDS011;67715;46.170;6.140;2024-01-10T12:18:40;60.58;;;22.75;;
78416;SDS011;67715;46.170;6.140;2024-01-10T12:21:06;54.00;;;20.10;;
78416;SDS011;67715;46.170;6.140;2024-01-10T12:23:33;48.38;;;18.35;;
78416;SDS011;67715;46.170;6.140;2024-01-10T12:26:02;53.13;;;22.17;;
78416;SDS011;67715;46.170;6.140;2024-01-10T12:28:29;52.70;;;20.40;;
78416;SDS011;67715;46.170;6.140;2024-01-10T12:30:55;54.03;;;19.48;;
78416;SDS011;67715;46.170;6.140;2024-01-10T12:33:23;51.67;;;20.43;;
78416;SDS011;67715;46.170;6.140;2024-01-10T12:36:08;54.08;;;20.52;;
78416;SDS011;67715;46.170;6.140;2024-01-10T12:38:40;45.85;;;18.60;;
78416;SDS011;67715;46.170;6.140;2024-01-10T12:41:05;49.95;;;20.73;;
78416;SDS011;67715;46.170;6.140;2024-01-10T12:43:33;54.80;;;21.20;;
78416;SDS011;67715;46.170;6.140;2024-01-10T12:46:09;50.63;;;19.90;;
78416;SDS011;67715;46.170;6.140;2024-01-10T12:48:39;51.38;;;19.65;;
78416;SDS011;67715;46.170;6.140;2024-01-10T12:51:08;55.35;;;21.42;;
78416;SDS011;67715;46.170;6.140;2024-01-10T12:53:37;50.13;;;21.17;;
78416;SDS011;67715;46.170;6.140;2024-01-10T12:56:04;53.85;;;22.55;;
78416;SDS011;67715;46.170;6.140;2024-01-10T12:58:30;64.43;;;22.33;;
78416;SDS011;67715;46.170;6.140;2024-01-10T13:00:56;53.28;;;21.50;;
78416;SDS011;67715;46.170;6.140;2024-01-10T13:03:22;58.47;;;21.33;;
78416;SDS011;67715;46.170;6.140;2024-01-10T13:05:48;60.25;;;22.48;;
78416;SDS011;67715;46.170;6.140;2024-01-10T13:08:13;52.55;;;20.35;;
78416;SDS011;67715;46.170;6.140;2024-01-10T13:10:39;49.67;;;19.92;;
78416;SDS011;67715;46.170;6.140;2024-01-10T13:13:04;50.50;;;20.88;;
78416;SDS011;67715;46.170;6.140;2024-01-10T13:15:30;49.13;;;20.63;;
78416;SDS011;67715;46.170;6.140;2024-01-10T13:17:55;51.45;;;20.20;;
78416;SDS011;67715;46.170;6.140;2024-01-10T13:20:21;51.60;;;20.70;;
78416;SDS011;67715;46.170;6.140;2024-01-10T13:22:46;54.92;;;20.58;;
78416;SDS011;67715;46.170;6.140;2024-01-10T13:25:12;47.67;;;18.80;;
78416;SDS011;67715;46.170;6.140;2024-01-10T13:27:37;51.13;;;19.42;;
78416;SDS011;67715;46.170;6.140;2024-01-10T13:30:03;50.05;;;18.92;;
78416;SDS011;67715;46.170;6.140;2024-01-10T13:32:30;47.97;;;18.10;;
78416;SDS011;67715;46.170;6.140;2024-01-10T13:34:56;46.67;;;19.00;;
78416;SDS011;67715;46.170;6.140;2024-01-10T13:37:22;51.35;;;18.88;;
78416;SDS011;67715;46.170;6.140;2024-01-10T13:39:47;44.67;;;19.50;;
78416;SDS011;67715;46.170;6.140;2024-01-10T13:42:13;47.05;;;18.38;;
78416;SDS011;67715;46.170;6.140;2024-01-10T13:44:39;49.63;;;20.27;;
78416;SDS011;67715;46.170;6.140;2024-01-10T13:47:04;53.43;;;19.83;;
78416;SDS011;67715;46.170;6.140;2024-01-10T13:49:29;51.60;;;19.50;;
78416;SDS011;67715;46.170;6.140;2024-01-10T13:51:55;42.40;;;20.07;;
78416;SDS011;67715;46.170;6.140;2024-01-10T13:54:20;45.13;;;19.92;;
78416;SDS011;67715;46.170;6.140;2024-01-10T13:56:46;45.28;;;18.83;;
78416;SDS011;67715;46.170;6.140;2024-01-10T13:59:12;42.83;;;17.73;;
78416;SDS011;67715;46.170;6.140;2024-01-10T14:01:37;47.28;;;20.10;;
78416;SDS011;67715;46.170;6.140;2024-01-10T14:04:03;44.03;;;19.27;;
78416;SDS011;67715;46.170;6.140;2024-01-10T14:06:28;43.47;;;19.65;;
78416;SDS011;67715;46.170;6.140;2024-01-10T14:08:54;40.50;;;18.00;;
78416;SDS011;67715;46.170;6.140;2024-01-10T14:11:19;50.03;;;18.60;;
78416;SDS011;67715;46.170;6.140;2024-01-10T14:13:45;43.88;;;18.92;;
78416;SDS011;67715;46.170;6.140;2024-01-10T14:16:10;48.33;;;18.20;;
78416;SDS011;67715;46.170;6.140;2024-01-10T14:18:36;54.85;;;20.23;;
78416;SDS011;67715;46.170;6.140;2024-01-10T14:21:01;44.78;;;19.30;;
78416;SDS011;67715;46.170;6.140;2024-01-10T14:23:27;45.75;;;19.10;;
78416;SDS011;67715;46.170;6.140;2024-01-10T14:25:52;47.47;;;18.23;;
78416;SDS011;67715;46.170;6.140;2024-01-10T14:28:18;48.28;;;19.48;;
78416;SDS011;67715;46.170;6.140;2024-01-10T14:30:45;44.60;;;19.25;;
78416;SDS011;67715;46.170;6.140;2024-01-10T14:33:11;47.33;;;19.15;;
78416;SDS011;67715;46.170;6.140;2024-01-10T14:35:38;46.33;;;18.98;;
78416;SDS011;67715;46.170;6.140;2024-01-10T14:38:05;49.08;;;19.83;;
78416;SDS011;67715;46.170;6.140;2024-01-10T14:40:30;43.38;;;18.02;;
78416;SDS011;67715;46.170;6.140;2024-01-10T14:42:55;48.22;;;19.33;;
78416;SDS011;67715;46.170;6.140;2024-01-10T14:45:21;49.00;;;19.73;;
78416;SDS011;67715;46.170;6.140;2024-01-10T14:47:46;50.80;;;20.33;;
78416;SDS011;67715;46.170;6.140;2024-01-10T14:50:12;53.33;;;21.23;;
78416;SDS011;67715;46.170;6.140;2024-01-10T14:52:37;56.57;;;21.63;;
78416;SDS011;67715;46.170;6.140;2024-01-10T14:55:03;57.57;;;21.10;;
78416;SDS011;67715;46.170;6.140;2024-01-10T14:57:30;52.92;;;20.98;;
78416;SDS011;67715;46.170;6.140;2024-01-10T14:59:55;57.15;;;19.88;;
78416;SDS011;67715;46.170;6.140;2024-01-10T15:02:20;50.30;;;19.70;;
78416;SDS011;67715;46.170;6.140;2024-01-10T15:04:48;54.13;;;19.33;;
78416;SDS011;67715;46.170;6.140;2024-01-10T15:07:13;44.53;;;20.07;;
78416;SDS011;67715;46.170;6.140;2024-01-10T15:09:39;48.72;;;19.10;;
78416;SDS011;67715;46.170;6.140;2024-01-10T15:12:07;48.28;;;18.70;;
78416;SDS011;67715;46.170;6.140;2024-01-10T15:14:33;46.20;;;20.50;;
78416;SDS011;67715;46.170;6.140;2024-01-10T15:17:00;51.67;;;20.48;;
78416;SDS011;67715;46.170;6.140;2024-01-10T15:19:26;52.97;;;20.75;;
78416;SDS011;67715;46.170;6.140;2024-01-10T15:21:51;52.30;;;20.23;;
78416;SDS011;67715;46.170;6.140;2024-01-10T15:24:16;42.43;;;19.20;;
78416;SDS011;67715;46.170;6.140;2024-01-10T15:26:42;48.92;;;18.38;;
78416;SDS011;67715;46.170;6.140;2024-01-10T15:29:07;53.55;;;20.17;;
78416;SDS011;67715;46.170;6.140;2024-01-10T15:31:32;50.65;;;20.02;;
78416;SDS011;67715;46.170;6.140;2024-01-10T15:33:59;51.13;;;20.00;;
78416;SDS011;67715;46.170;6.140;2024-01-10T15:36:26;50.72;;;18.90;;
78416;SDS011;67715;46.170;6.140;2024-01-10T15:38:52;52.90;;;19.13;;
78416;SDS011;67715;46.170;6.140;2024-01-10T15:41:17;43.25;;;18.45;;
78416;SDS011;67715;46.170;6.140;2024-01-10T15:43:43;52.25;;;19.33;;
78416;SDS011;67715;46.170;6.140;2024-01-10T15:46:08;58.43;;;20.30;;
78416;SDS011;67715;46.170;6.140;2024-01-10T15:48:34;41.23;;;19.00;;
78416;SDS011;67715;46.170;6.140;2024-01-10T15:50:59;49.10;;;20.50;;
78416;SDS011;67715;46.170;6.140;2024-01-10T15:53:24;52.72;;;18.95;;
78416;SDS011;67715;46.170;6.140;2024-01-10T15:55:50;49.50;;;20.08;;
78416;SDS011;67715;46.170;6.140;2024-01-10T15:58:16;46.03;;;18.58;;
78416;SDS011;67715;46.170;6.140;2024-01-10T16:00:42;47.03;;;19.58;;
78416;SDS011;67715;46.170;6.140;2024-01-10T16:03:07;48.28;;;20.08;;
78416;SDS011;67715;46.170;6.140;2024-01-10T16:05:33;47.60;;;19.73;;
78416;SDS011;67715;46.170;6.140;2024-01-10T16:07:58;48.75;;;21.30;;
78416;SDS011;67715;46.170;6.140;2024-01-10T16:10:23;40.63;;;19.17;;
78416;SDS011;67715;46.170;6.140;2024-01-10T16:12:50;49.58;;;21.90;;
78416;SDS011;67715;46.170;6.140;2024-01-10T16:15:15;61.33;;;25.10;;
78416;SDS011;67715;46.170;6.140;2024-01-10T16:17:41;52.67;;;21.42;;
78416;SDS011;67715;46.170;6.140;2024-01-10T16:20:06;59.00;;;23.70;;
78416;SDS011;67715;46.170;6.140;2024-01-10T16:22:32;56.78;;;22.05;;
78416;SDS011;67715;46.170;6.140;2024-01-10T16:24:58;67.80;;;25.65;;
78416;SDS011;67715;46.170;6.140;2024-01-10T16:27:24;66.15;;;24.75;;
78416;SDS011;67715;46.170;6.140;2024-01-10T16:29:49;53.35;;;22.85;;
78416;SDS011;67715;46.170;6.140;2024-01-10T16:32:15;53.83;;;21.50;;
78416;SDS011;67715;46.170;6.140;2024-01-10T16:34:40;50.45;;;21.17;;
78416;SDS011;67715;46.170;6.140;2024-01-10T16:37:05;53.17;;;22.80;;
78416;SDS011;67715;46.170;6.140;2024-01-10T16:39:32;54.13;;;22.42;;
78416;SDS011;67715;46.170;6.140;2024-01-10T16:41:58;51.47;;;22.35;;
78416;SDS011;67715;46.170;6.140;2024-01-10T16:44:23;49.20;;;21.00;;
78416;SDS011;67715;46.170;6.140;2024-01-10T16:46:48;54.60;;;20.77;;
78416;SDS011;67715;46.170;6.140;2024-01-10T16:49:14;55.53;;;21.27;;
78416;SDS011;67715;46.170;6.140;2024-01-10T16:51:39;53.70;;;22.48;;
78416;SDS011;67715;46.170;6.140;2024-01-10T16:54:05;52.08;;;21.27;;
78416;SDS011;67715;46.170;6.140;2024-01-10T16:56:30;59.63;;;22.70;;
78416;SDS011;67715;46.170;6.140;2024-01-10T16:58:55;48.75;;;20.63;;
78416;SDS011;67715;46.170;6.140;2024-01-10T17:01:21;53.83;;;20.30;;
78416;SDS011;67715;46.170;6.140;2024-01-10T17:03:46;53.27;;;21.90;;
78416;SDS011;67715;46.170;6.140;2024-01-10T17:06:11;41.55;;;19.25;;
78416;SDS011;67715;46.170;6.140;2024-01-10T17:08:37;48.73;;;21.80;;
78416;SDS011;67715;46.170;6.140;2024-01-10T17:11:02;50.42;;;21.77;;
78416;SDS011;67715;46.170;6.140;2024-01-10T17:13:31;43.38;;;19.27;;
78416;SDS011;67715;46.170;6.140;2024-01-10T17:15:57;44.25;;;19.13;;
78416;SDS011;67715;46.170;6.140;2024-01-10T17:18:22;51.60;;;21.20;;
78416;SDS011;67715;46.170;6.140;2024-01-10T17:20:47;61.37;;;22.77;;
78416;SDS011;67715;46.170;6.140;2024-01-10T17:23:13;52.00;;;22.33;;
78416;SDS011;67715;46.170;6.140;2024-01-10T17:25:39;50.70;;;21.75;;
78416;SDS011;67715;46.170;6.140;2024-01-10T17:28:04;49.63;;;21.23;;
78416;SDS011;67715;46.170;6.140;2024-01-10T17:30:30;56.92;;;24.63;;
78416;SDS011;67715;46.170;6.140;2024-01-10T17:32:57;56.00;;;22.75;;
78416;SDS011;67715;46.170;6.140;2024-01-10T17:35:22;49.80;;;20.92;;
78416;SDS011;67715;46.170;6.140;2024-01-10T17:37:47;57.17;;;22.93;;
78416;SDS011;67715;46.170;6.140;2024-01-10T17:40:13;59.23;;;24.23;;
78416;SDS011;67715;46.170;6.140;2024-01-10T17:42:38;52.78;;;22.00;;
78416;SDS011;67715;46.170;6.140;2024-01-10T17:45:04;57.20;;;22.52;;
78416;SDS011;67715;46.170;6.140;2024-01-10T17:47:31;55.33;;;23.35;;
78416;SDS011;67715;46.170;6.140;2024-01-10T17:49:57;55.42;;;22.92;;
78416;SDS011;67715;46.170;6.140;2024-01-10T17:52:23;58.13;;;24.42;;
78416;SDS011;67715;46.170;6.140;2024-01-10T17:54:48;51.03;;;22.13;;
78416;SDS011;67715;46.170;6.140;2024-01-10T17:57:14;55.25;;;21.90;;
78416;SDS011;67715;46.170;6.140;2024-01-10T17:59:39;51.77;;;21.73;;
78416;SDS011;67715;46.170;6.140;2024-01-10T18:02:04;55.00;;;22.93;;
78416;SDS011;67715;46.170;6.140;2024-01-10T18:04:30;59.33;;;24.75;;
78416;SDS011;67715;46.170;6.140;2024-01-10T18:06:55;56.07;;;23.40;;
78416;SDS011;67715;46.170;6.140;2024-01-10T18:09:21;67.37;;;25.63;;
78416;SDS011;67715;46.170;6.140;2024-01-10T18:11:46;57.92;;;23.88;;
78416;SDS011;67715;46.170;6.140;2024-01-10T18:14:11;67.10;;;26.00;;
78416;SDS011;67715;46.170;6.140;2024-01-10T18:16:38;55.30;;;22.27;;
78416;SDS011;67715;46.170;6.140;2024-01-10T18:19:03;62.72;;;25.10;;
78416;SDS011;67715;46.170;6.140;2024-01-10T18:21:29;62.13;;;26.00;;
78416;SDS011;67715;46.170;6.140;2024-01-10T18:23:54;61.10;;;25.40;;
78416;SDS011;67715;46.170;6.140;2024-01-10T18:26:23;64.00;;;24.83;;
78416;SDS011;67715;46.170;6.140;2024-01-10T18:28:49;62.45;;;24.13;;
78416;SDS011;67715;46.170;6.140;2024-01-10T18:31:14;59.40;;;23.43;;
78416;SDS011;67715;46.170;6.140;2024-01-10T18:33:40;65.72;;;25.90;;
78416;SDS011;67715;46.170;6.140;2024-01-10T18:36:05;57.42;;;24.88;;
78416;SDS011;67715;46.170;6.140;2024-01-10T18:38:31;53.38;;;22.65;;
78416;SDS011;67715;46.170;6.140;2024-01-10T18:40:57;56.10;;;24.20;;
78416;SDS011;67715;46.170;6.140;2024-01-10T18:43:22;64.60;;;25.95;;
78416;SDS011;67715;46.170;6.140;2024-01-10T18:45:47;59.00;;;23.97;;
78416;SDS011;67715;46.170;6.140;2024-01-10T18:48:13;49.57;;;23.03;;
78416;SDS011;67715;46.170;6.140;2024-01-10T18:50:38;58.00;;;24.80;;
78416;SDS011;67715;46.170;6.140;2024-01-10T18:53:04;54.70;;;23.92;;
78416;SDS011;67715;46.170;6.140;2024-01-10T18:55:29;56.03;;;24.52;;
78416;SDS011;67715;46.170;6.140;2024-01-10T18:57:56;61.05;;;24.42;;
78416;SDS011;67715;46.170;6.140;2024-01-10T19:00:21;63.40;;;24.90;;
78416;SDS011;67715;46.170;6.140;2024-01-10T19:02:50;52.67;;;22.52;;
78416;SDS011;67715;46.170;6.140;2024-01-10T19:05:15;64.35;;;24.00;;
78416;SDS011;67715;46.170;6.140;2024-01-10T19:07:41;54.58;;;23.65;;
78416;SDS011;67715;46.170;6.140;2024-01-10T19:10:07;59.00;;;23.90;;
78416;SDS011;67715;46.170;6.140;2024-01-10T19:12:33;47.45;;;21.58;;
78416;SDS011;67715;46.170;6.140;2024-01-10T19:14:58;54.33;;;23.65;;
78416;SDS011;67715;46.170;6.140;2024-01-10T19:17:23;51.40;;;23.73;;
78416;SDS011;67715;46.170;6.140;2024-01-10T19:19:49;61.80;;;24.85;;
78416;SDS011;67715;46.170;6.140;2024-01-10T19:22:14;55.00;;;24.97;;
78416;SDS011;67715;46.170;6.140;2024-01-10T19:24:39;58.58;;;23.98;;
78416;SDS011;67715;46.170;6.140;2024-01-10T19:27:05;48.92;;;21.15;;
78416;SDS011;67715;46.170;6.140;2024-01-10T19:29:30;56.07;;;24.17;;
78416;SDS011;67715;46.170;6.140;2024-01-10T19:31:56;60.60;;;25.55;;
78416;SDS011;67715;46.170;6.140;2024-01-10T19:34:21;55.23;;;22.87;;
78416;SDS011;67715;46.170;6.140;2024-01-10T19:36:48;61.40;;;24.25;;
78416;SDS011;67715;46.170;6.140;2024-01-10T19:39:14;51.05;;;23.05;;
78416;SDS011;67715;46.170;6.140;2024-01-10T19:41:39;48.83;;;22.50;;
78416;SDS011;67715;46.170;6.140;2024-01-10T19:44:04;56.23;;;22.57;;
78416;SDS011;67715;46.170;6.140;2024-01-10T19:46:30;50.45;;;23.58;;
78416;SDS011;67715;46.170;6.140;2024-01-10T19:48:55;51.43;;;22.13;;
78416;SDS011;67715;46.170;6.140;2024-01-10T19:51:20;46.83;;;20.97;;
78416;SDS011;67715;46.170;6.140;2024-01-10T19:53:46;46.83;;;19.60;;
78416;SDS011;67715;46.170;6.140;2024-01-10T19:56:15;52.95;;;21.42;;
78416;SDS011;67715;46.170;6.140;2024-01-10T19:58:41;49.60;;;20.50;;
78416;SDS011;67715;46.170;6.140;2024-01-10T20:01:06;55.35;;;21.55;;
78416;SDS011;67715;46.170;6.140;2024-01-10T20:03:32;48.70;;;20.27;;
78416;SDS011;67715;46.170;6.140;2024-01-10T20:05:57;49.80;;;22.33;;
78416;SDS011;67715;46.170;6.140;2024-01-10T20:08:22;47.60;;;20.53;;
78416;SDS011;67715;46.170;6.140;2024-01-10T20:10:48;50.20;;;19.37;;
78416;SDS011;67715;46.170;6.140;2024-01-10T20:13:13;51.28;;;21.48;;
78416;SDS011;67715;46.170;6.140;2024-01-10T20:15:39;58.05;;;22.55;;
78416;SDS011;67715;46.170;6.140;2024-01-10T20:18:04;53.53;;;20.43;;
78416;SDS011;67715;46.170;6.140;2024-01-10T20:20:29;58.80;;;19.95;;
78416;SDS011;67715;46.170;6.140;2024-01-10T20:22:55;54.78;;;22.45;;
78416;SDS011;67715;46.170;6.140;2024-01-10T20:25:21;54.83;;;22.47;;
78416;SDS011;67715;46.170;6.140;2024-01-10T20:27:50;57.53;;;22.17;;
78416;SDS011;67715;46.170;6.140;2024-01-10T20:30:15;64.18;;;24.08;;
78416;SDS011;67715;46.170;6.140;2024-01-10T20:32:41;59.95;;;23.40;;
78416;SDS011;67715;46.170;6.140;2024-01-10T20:35:06;62.73;;;22.80;;
78416;SDS011;67715;46.170;6.140;2024-01-10T20:37:32;65.53;;;23.15;;
78416;SDS011;67715;46.170;6.140;2024-01-10T20:39:57;59.73;;;21.67;;
78416;SDS011;67715;46.170;6.140;2024-01-10T20:42:22;54.27;;;20.90;;
78416;SDS011;67715;46.170;6.140;2024-01-10T20:44:48;65.53;;;21.73;;
78416;SDS011;67715;46.170;6.140;2024-01-10T20:47:14;61.33;;;22.05;;
78416;SDS011;67715;46.170;6.140;2024-01-10T20:49:42;56.03;;;21.83;;
78416;SDS011;67715;46.170;6.140;2024-01-10T20:52:07;57.97;;;22.53;;
78416;SDS011;67715;46.170;6.140;2024-01-10T20:54:33;52.40;;;21.73;;
78416;SDS011;67715;46.170;6.140;2024-01-10T20:57:00;52.92;;;21.13;;
78416;SDS011;67715;46.170;6.140;2024-01-10T20:59:26;58.28;;;20.40;;
78416;SDS011;67715;46.170;6.140;2024-01-10T21:01:51;57.70;;;21.13;;
78416;SDS011;67715;46.170;6.140;2024-01-10T21:04:17;52.47;;;17.35;;
78416;SDS011;67715;46.170;6.140;2024-01-10T21:06:42;53.83;;;20.35;;
78416;SDS011;67715;46.170;6.140;2024-01-10T21:09:08;59.08;;;21.58;;
78416;SDS011;67715;46.170;6.140;2024-01-10T21:11:36;49.47;;;19.08;;
78416;SDS011;67715;46.170;6.140;2024-01-10T21:14:02;57.58;;;20.65;;
78416;SDS011;67715;46.170;6.140;2024-01-10T21:16:28;53.20;;;21.02;;
78416;SDS011;67715;46.170;6.140;2024-01-10T21:18:54;56.60;;;20.30;;
78416;SDS011;67715;46.170;6.140;2024-01-10T21:21:24;50.08;;;19.05;;
78416;SDS011;67715;46.170;6.140;2024-01-10T21:23:50;55.03;;;20.85;;
78416;SDS011;67715;46.170;6.140;2024-01-10T21:26:15;46.55;;;17.80;;
78416;SDS011;67715;46.170;6.140;2024-01-10T21:28:41;53.17;;;18.95;;
78416;SDS011;67715;46.170;6.140;2024-01-10T21:31:06;49.33;;;20.38;;
78416;SDS011;67715;46.170;6.140;2024-01-10T21:33:32;52.37;;;20.57;;
78416;SDS011;67715;46.170;6.140;2024-01-10T21:35:57;52.75;;;19.67;;
78416;SDS011;67715;46.170;6.140;2024-01-10T21:38:23;49.63;;;19.02;;
78416;SDS011;67715;46.170;6.140;2024-01-10T21:40:49;56.83;;;19.73;;
78416;SDS011;67715;46.170;6.140;2024-01-10T21:43:14;52.15;;;21.00;;
78416;SDS011;67715;46.170;6.140;2024-01-10T21:48:05;41.37;;;16.23;;
78416;SDS011;67715;46.170;6.140;2024-01-10T21:50:30;47.75;;;17.98;;
78416;SDS011;67715;46.170;6.140;2024-01-10T21:52:56;51.83;;;19.83;;
78416;SDS011;67715;46.170;6.140;2024-01-10T21:55:21;52.63;;;18.27;;
78416;SDS011;67715;46.170;6.140;2024-01-10T21:57:47;53.08;;;20.33;;
78416;SDS011;67715;46.170;6.140;2024-01-10T22:00:12;49.58;;;20.02;;
78416;SDS011;67715;46.170;6.140;2024-01-10T22:02:38;49.17;;;18.23;;
78416;SDS011;67715;46.170;6.140;2024-01-10T22:05:03;48.23;;;19.83;;
78416;SDS011;67715;46.170;6.140;2024-01-10T22:07:29;54.35;;;18.67;;
78416;SDS011;67715;46.170;6.140;2024-01-10T22:09:55;62.08;;;20.45;;
78416;SDS011;67715;46.170;6.140;2024-01-10T22:12:20;54.28;;;18.92;;
78416;SDS011;67715;46.170;6.140;2024-01-10T22:14:45;56.80;;;19.43;;
78416;SDS011;67715;46.170;6.140;2024-01-10T22:17:11;52.57;;;18.67;;
78416;SDS011;67715;46.170;6.140;2024-01-10T22:19:36;56.07;;;20.60;;
78416;SDS011;67715;46.170;6.140;2024-01-10T22:22:02;55.17;;;18.67;;
78416;SDS011;67715;46.170;6.140;2024-01-10T22:24:27;48.20;;;18.42;;
78416;SDS011;67715;46.170;6.140;2024-01-10T22:26:53;52.10;;;18.90;;
78416;SDS011;67715;46.170;6.140;2024-01-10T22:29:18;47.37;;;18.27;;
78416;SDS011;67715;46.170;6.140;2024-01-10T22:31:45;51.83;;;18.70;;
78416;SDS011;67715;46.170;6.140;2024-01-10T22:34:11;56.13;;;18.50;;
78416;SDS011;67715;46.170;6.140;2024-01-10T22:36:36;58.93;;;19.83;;
78416;SDS011;67715;46.170;6.140;2024-01-10T22:39:01;50.43;;;18.60;;
78416;SDS011;67715;46.170;6.140;2024-01-10T22:41:27;54.67;;;21.42;;
78416;SDS011;67715;46.170;6.140;2024-01-10T22:43:52;57.73;;;20.93;;
78416;SDS011;67715;46.170;6.140;2024-01-10T22:46:17;59.23;;;18.73;;
78416;SDS011;67715;46.170;6.140;2024-01-10T22:48:43;70.33;;;22.30;;
78416;SDS011;67715;46.170;6.140;2024-01-10T22:51:08;56.00;;;19.60;;
78416;SDS011;67715;46.170;6.140;2024-01-10T22:53:34;54.05;;;21.52;;
78416;SDS011;67715;46.170;6.140;2024-01-10T22:55:59;63.20;;;20.77;;
78416;SDS011;67715;46.170;6.140;2024-01-10T22:58:24;56.33;;;20.20;;
78416;SDS011;67715;46.170;6.140;2024-01-10T23:00:50;53.00;;;18.37;;
78416;SDS011;67715;46.170;6.140;2024-01-10T23:03:15;52.95;;;19.52;;
78416;SDS011;67715;46.170;6.140;2024-01-10T23:05:41;51.58;;;19.27;;
78416;SDS011;67715;46.170;6.140;2024-01-10T23:08:07;59.40;;;21.10;;
78416;SDS011;67715;46.170;6.140;2024-01-10T23:10:32;56.58;;;20.52;;
78416;SDS011;67715;46.170;6.140;2024-01-10T23:12:58;48.83;;;19.75;;
78416;SDS011;67715;46.170;6.140;2024-01-10T23:15:24;61.17;;;20.00;;
78416;SDS011;67715;46.170;6.140;2024-01-10T23:17:49;52.97;;;19.23;;
78416;SDS011;67715;46.170;6.140;2024-01-10T23:20:15;71.65;;;21.30;;
78416;SDS011;67715;46.170;6.140;2024-01-10T23:22:41;67.65;;;21.77;;
78416;SDS011;67715;46.170;6.140;2024-01-10T23:25:07;64.05;;;20.90;;
78416;SDS011;67715;46.170;6.140;2024-01-10T23:27:35;68.82;;;21.55;;
78416;SDS011;67715;46.170;6.140;2024-01-10T23:30:02;69.00;;;22.90;;
78416;SDS011;67715;46.170;6.140;2024-01-10T23:32:32;62.22;;;22.05;;
78416;SDS011;67715;46.170;6.140;2024-01-10T23:34:58;61.00;;;19.45;;
78416;SDS011;67715;46.170;6.140;2024-01-10T23:37:24;56.97;;;20.60;;
78416;SDS011;67715;46.170;6.140;2024-01-10T23:39:49;66.20;;;21.50;;
78416;SDS011;67715;46.170;6.140;2024-01-10T23:42:14;74.43;;;21.43;;
78416;SDS011;67715;46.170;6.140;2024-01-10T23:44:41;61.47;;;20.23;;
78416;SDS011;67715;46.170;6.140;2024-01-10T23:47:06;65.07;;;21.88;;
78416;SDS011;67715;46.170;6.140;2024-01-10T23:49:31;56.67;;;19.90;;
78416;SDS011;67715;46.170;6.140;2024-01-10T23:51:57;69.13;;;22.33;;
78416;SDS011;67715;46.170;6.140;2024-01-10T23:54:23;60.85;;;21.25;;
78416;SDS011;67715;46.170;6.140;2024-01-10T23:56:49;53.72;;;20.45;;
78416;SDS011;67715;46.170;6.140;2024-01-10T23:59:14;61.97;;;21.10;;
